Time;durP1;ratioP1;P1;durP2;ratioP2;P2;SDS_P1;SDS_P2;PMS_P1;PMS_P2;Temp;Humidity;BMP_temperature;BMP_pressure;BME280_temperature;BME280_humidity;BME280_pressure;Samples;Min_cycle;Max_cycle;Signal;HPM_P1;HPM_P2
2023/03/05 00:01:31;;;;;;;23.57;10.97;;;3.50;74.60;;;7.04;47.40;97897.75;5073823;28;20033;-47
2023/03/05 00:04:01;;;;;;;22.03;10.87;;;3.50;75.50;;;6.97;46.98;97896.59;5073688;28;20040;-49
2023/03/05 00:06:30;;;;;;;26.90;12.17;;;3.40;74.90;;;6.98;47.33;97898.28;5073138;28;20041;-50
2023/03/05 00:08:58;;;;;;;21.67;11.60;;;3.40;74.60;;;6.94;47.04;97894.25;5073208;28;20048;-50
2023/03/05 00:11:28;;;;;;;22.30;10.17;;;3.40;74.60;;;6.93;46.93;97900.50;5072647;28;20045;-50
2023/03/05 00:13:58;;;;;;;26.27;11.57;;;3.40;74.90;;;6.95;47.26;97900.38;5073666;28;20492;-50
2023/03/05 00:16:27;;;;;;;23.53;11.90;;;3.40;75.00;;;6.98;47.74;97894.78;5073459;28;20041;-49
2023/03/05 00:18:57;;;;;;;25.23;11.60;;;3.50;74.80;;;7.01;47.69;97886.59;5073325;28;20440;-51
2023/03/05 00:21:33;;;;;;;23.63;10.33;;;3.50;74.80;;;6.97;47.29;97890.47;5072720;28;20044;-48
2023/03/05 00:24:04;;;;;;;23.30;11.93;;;3.40;74.90;;;6.96;47.36;97889.66;5073354;28;20059;-50
2023/03/05 00:26:36;;;;;;;23.63;13.27;;;3.40;75.00;;;6.96;47.87;97894.09;5073395;28;20045;-47
2023/03/05 00:29:05;;;;;;;20.23;10.00;;;3.40;75.10;;;6.80;47.71;97887.47;5055419;28;20071;-51
2023/03/05 00:31:35;;;;;;;30.67;12.70;;;3.30;76.20;;;6.83;47.67;97886.38;5055450;28;20056;-46
2023/03/05 00:34:10;;;;;;;20.00;10.73;;;3.30;75.80;;;6.84;47.74;97880.97;5054529;28;20550;-47
2023/03/05 00:36:47;;;;;;;22.00;11.83;;;3.30;75.60;;;6.79;47.50;97885.81;5054661;28;20104;-49
2023/03/05 00:39:18;;;;;;;19.77;9.97;;;3.30;75.80;;;6.79;47.67;97883.16;5072871;28;20388;-50
2023/03/05 00:41:46;;;;;;;19.20;9.97;;;3.20;76.00;;;6.77;47.95;97890.38;5054614;28;20040;-47
2023/03/05 00:44:14;;;;;;;20.37;10.40;;;3.30;76.00;;;6.79;48.37;97883.16;5055240;28;20048;-53
2023/03/05 00:46:41;;;;;;;22.60;10.03;;;3.30;76.10;;;6.81;48.37;97873.28;5054685;28;20045;-51
2023/03/05 00:49:09;;;;;;;18.40;10.37;;;3.30;76.00;;;6.83;47.82;97881.91;5038100;28;20055;-49
2023/03/05 00:51:36;;;;;;;19.03;9.90;;;3.30;76.20;;;6.77;48.05;97871.88;5054171;28;20496;-46
2023/03/05 00:54:04;;;;;;;20.90;11.03;;;3.20;76.60;;;6.70;48.79;97878.63;5072565;28;20059;-51
2023/03/05 00:56:32;;;;;;;20.77;9.93;;;3.20;76.80;;;6.76;48.24;97869.34;5072489;28;20040;-47
2023/03/05 00:59:00;;;;;;;19.23;8.73;;;3.20;76.70;;;6.73;48.54;97867.81;5072743;28;20555;-51
2023/03/05 01:01:28;;;;;;;17.50;8.90;;;3.20;76.70;;;6.73;47.92;97867.81;5054478;28;20044;-48
2023/03/05 01:03:56;;;;;;;23.17;9.50;;;3.20;77.00;;;6.72;48.03;97870.56;5054786;28;20052;-49
2023/03/05 01:06:24;;;;;;;17.83;9.17;;;3.20;77.10;;;6.77;47.91;97869.22;5072563;28;20041;-47
2023/03/05 01:08:52;;;;;;;18.37;9.23;;;3.20;76.90;;;6.72;48.82;97862.63;5072728;28;20051;-50
2023/03/05 01:11:19;;;;;;;20.47;9.00;;;3.20;77.60;;;6.64;49.22;97872.06;5070678;28;20040;-48
2023/03/05 01:13:47;;;;;;;21.50;9.37;;;3.10;78.00;;;6.66;48.96;97859.53;5054774;28;20044;-50
2023/03/05 01:16:14;;;;;;;17.17;8.73;;;3.20;78.10;;;6.66;48.70;97862.19;5054233;28;20053;-50
2023/03/05 01:18:42;;;;;;;21.10;8.87;;;3.20;78.10;;;6.65;48.84;97855.22;5070203;28;20047;-46
2023/03/05 01:21:09;;;;;;;21.10;11.07;;;3.10;78.60;;;6.63;49.20;97849.25;5072098;28;20048;-50
2023/03/05 01:23:37;;;;;;;16.93;8.20;;;3.10;78.60;;;6.72;49.17;97844.13;5054046;28;20048;-48
2023/03/05 01:26:05;;;;;;;21.23;9.77;;;3.20;78.90;;;6.72;49.00;97844.13;5054131;28;20048;-50
2023/03/05 01:28:33;;;;;;;19.93;9.10;;;3.20;79.00;;;6.74;48.92;97839.53;5054619;28;20048;-50
2023/03/05 01:31:00;;;;;;;24.37;9.97;;;3.20;79.30;;;6.77;48.58;97839.28;5061932;28;20503;-47
2023/03/05 01:33:28;;;;;;;16.50;8.83;;;3.30;79.30;;;6.82;48.75;97837.06;5054447;28;20540;-47
2023/03/05 01:35:56;;;;;;;23.13;9.83;;;3.30;79.40;;;6.82;48.72;97832.59;5054085;28;20047;-50
2023/03/05 01:38:23;;;;;;;26.17;9.57;;;3.30;79.60;;;6.85;49.38;97827.03;5063999;28;20044;-47
2023/03/05 01:40:51;;;;;;;17.13;8.00;;;3.30;79.70;;;6.75;49.14;97825.34;5071876;28;20040;-46
2023/03/05 01:43:27;;;;;;;21.90;9.07;;;3.30;79.20;;;6.79;49.32;97824.09;5054107;28;20052;-52
2023/03/05 01:46:18;;;;;;;18.00;8.37;;;3.30;79.80;;;6.83;48.82;97822.88;5072001;28;20049;-48
2023/03/05 01:49:09;;;;;;;19.97;8.10;;;3.30;79.60;;;6.83;49.41;97821.03;5049008;28;20056;-43
2023/03/05 01:51:53;;;;;;;17.40;9.60;;;3.40;80.00;;;6.77;49.09;97821.59;5034366;28;20082;-43
2023/03/05 01:54:36;;;;;;;16.17;7.53;;;3.30;79.60;;;6.77;49.48;97821.59;5071855;28;20041;-43
2023/03/05 01:57:12;;;;;;;20.10;7.90;;;3.30;79.50;;;6.78;49.50;97815.31;5069140;28;20044;-44
2023/03/05 01:59:43;;;;;;;19.20;7.93;;;3.30;79.40;;;6.71;49.62;97814.19;5037145;28;20048;-44
2023/03/05 02:02:12;;;;;;;23.60;10.47;;;3.30;79.40;;;6.72;49.38;97815.00;5037495;28;20514;-45
2023/03/05 02:04:53;;;;;;;17.30;7.93;;;3.20;79.70;;;6.72;49.31;97813.19;5036749;28;20048;-46
2023/03/05 02:07:22;;;;;;;18.87;7.37;;;3.20;79.60;;;6.74;49.13;97805.13;5044373;28;20045;-43
2023/03/05 02:09:50;;;;;;;18.40;9.40;;;3.30;79.50;;;6.60;49.70;97799.22;5017862;28;20049;-43
2023/03/05 02:12:18;;;;;;;16.87;7.77;;;3.20;80.10;;;6.50;49.91;97799.19;5071049;28;20049;-43
2023/03/05 02:14:49;;;;;;;17.43;8.27;;;3.10;80.80;;;6.57;50.23;97798.66;5053662;28;20447;-43
2023/03/05 02:17:17;;;;;;;20.57;9.07;;;3.10;81.30;;;6.63;50.08;97801.63;5052141;28;20044;-44
2023/03/05 02:20:01;;;;;;;21.80;9.97;;;3.20;81.40;;;6.69;49.15;97794.97;5053566;28;20240;-42
2023/03/05 02:22:29;;;;;;;17.05;7.97;;;3.30;81.30;;;6.68;50.11;97795.91;5062715;28;20048;-44
2023/03/05 02:24:56;;;;;;;15.03;8.33;;;3.20;81.30;;;6.67;49.85;97789.78;5053505;28;20350;-45
2023/03/05 02:27:33;;;;;;;22.83;8.77;;;3.20;82.80;;;6.69;49.94;97795.78;5049400;28;20053;-46
2023/03/05 02:30:02;;;;;;;20.90;8.77;;;3.20;82.80;;;6.66;50.39;97790.75;5034234;28;20049;-45
2023/03/05 02:32:29;;;;;;;17.70;8.10;;;3.20;83.50;;;6.62;50.27;97791.16;5053261;28;20059;-42
2023/03/05 02:34:57;;;;;;;17.47;10.30;;;3.10;83.60;;;6.56;50.62;97789.06;5053262;28;20044;-44
2023/03/05 02:37:25;;;;;;;20.13;8.30;;;3.10;84.30;;;6.50;51.23;97791.25;5070516;28;20484;-44
2023/03/05 02:39:52;;;;;;;18.77;7.80;;;3.10;85.70;;;6.49;51.04;97786.09;5052610;28;20040;-43
2023/03/05 02:42:20;;;;;;;18.30;7.90;;;3.10;85.40;;;6.52;51.40;97788.47;5053376;28;20060;-48
2023/03/05 02:44:48;;;;;;;17.23;9.37;;;3.10;85.80;;;6.54;50.88;97783.88;5053128;28;20071;-48
2023/03/05 02:47:16;;;;;;;19.13;8.20;;;3.10;85.80;;;6.54;51.31;97783.06;5052100;28;20056;-47
2023/03/05 02:49:43;;;;;;;21.93;9.23;;;3.10;85.60;;;6.63;50.69;97772.50;5053013;28;20423;-49
2023/03/05 02:52:11;;;;;;;22.50;8.03;;;3.20;85.90;;;6.54;50.97;97772.47;5052360;28;20496;-50
2023/03/05 02:54:39;;;;;;;16.83;8.13;;;3.10;86.00;;;6.59;51.19;97771.13;5053107;28;20284;-48
2023/03/05 02:57:06;;;;;;;18.80;7.30;;;3.10;86.10;;;6.60;51.33;97769.28;5068837;28;20053;-47
2023/03/05 02:59:34;;;;;;;20.20;8.13;;;3.10;86.60;;;6.56;51.02;97760.78;5052912;28;20420;-50
2023/03/05 03:02:01;;;;;;;19.07;9.07;;;3.00;87.30;;;6.53;51.23;97757.56;5052408;28;20045;-51
2023/03/05 03:04:29;;;;;;;22.20;9.37;;;3.00;87.90;;;6.61;51.00;97763.00;5052332;28;20048;-50
2023/03/05 03:06:57;;;;;;;20.87;9.03;;;3.10;88.40;;;6.65;51.18;97754.69;5070499;28;20048;-49
2023/03/05 03:09:25;;;;;;;20.13;8.87;;;3.10;87.70;;;6.67;50.68;97757.22;5070839;28;20044;-47
2023/03/05 03:11:53;;;;;;;18.87;8.00;;;3.10;87.80;;;6.54;50.93;97754.78;5070272;28;20055;-50
2023/03/05 03:14:21;;;;;;;20.47;8.73;;;3.10;87.80;;;6.56;51.26;97752.84;5070724;28;20075;-52
2023/03/05 03:16:49;;;;;;;17.30;8.37;;;3.10;87.80;;;6.53;51.22;97749.63;5070481;28;20048;-47
2023/03/05 03:19:16;;;;;;;19.13;8.40;;;3.10;88.00;;;6.50;50.98;97748.09;5070151;28;20048;-52
2023/03/05 03:21:44;;;;;;;20.03;8.80;;;3.10;87.60;;;6.55;50.88;97751.16;5070423;28;20151;-52
2023/03/05 03:24:11;;;;;;;18.70;9.27;;;3.00;87.80;;;6.55;50.93;97750.31;5070637;28;20044;-48
2023/03/05 03:26:39;;;;;;;20.27;8.13;;;3.00;87.70;;;6.57;51.46;97737.81;5070140;28;20048;-47
2023/03/05 03:29:06;;;;;;;15.63;8.00;;;3.00;87.90;;;6.65;51.14;97737.97;5070230;28;20057;-51
2023/03/05 03:31:34;;;;;;;20.70;8.23;;;3.10;87.80;;;6.70;51.08;97735.75;5070438;28;20044;-47
2023/03/05 03:34:01;;;;;;;15.30;7.83;;;3.20;87.20;;;6.67;50.58;97731.59;5072904;28;20150;-47
2023/03/05 03:36:29;;;;;;;19.93;8.53;;;3.20;86.80;;;6.65;51.00;97724.75;5073869;28;20536;-48
2023/03/05 03:38:57;;;;;;;17.77;7.63;;;3.10;86.30;;;6.68;51.10;97729.78;5074468;28;20044;-51
2023/03/05 03:41:24;;;;;;;18.13;8.00;;;3.10;86.60;;;6.64;51.22;97721.25;5073978;28;20496;-49
2023/03/05 03:43:52;;;;;;;24.47;9.00;;;3.20;86.30;;;6.66;50.36;97716.66;5073673;28;20036;-48
2023/03/05 03:46:19;;;;;;;18.33;8.00;;;3.10;86.30;;;6.66;51.05;97721.97;5074137;28;20041;-51
2023/03/05 03:48:50;;;;;;;17.13;7.90;;;3.10;86.20;;;6.71;50.79;97713.63;5074002;28;20067;-49
2023/03/05 03:51:17;;;;;;;18.93;8.53;;;3.10;85.80;;;6.70;50.54;97720.72;5073609;28;20045;-48
2023/03/05 03:53:45;;;;;;;19.37;8.63;;;3.10;86.10;;;6.71;50.13;97713.63;5074063;28;20048;-46
2023/03/05 03:56:12;;;;;;;22.60;9.27;;;3.20;85.60;;;6.73;50.48;97713.47;5073698;28;20044;-50
2023/03/05 03:58:40;;;;;;;19.23;7.90;;;3.20;85.60;;;6.69;49.86;97705.84;5073981;28;20033;-51
2023/03/05 04:01:08;;;;;;;18.10;8.37;;;3.20;85.30;;;6.66;50.93;97714.03;5074107;28;20047;-50
2023/03/05 04:03:35;;;;;;;18.90;7.63;;;3.10;85.40;;;6.70;50.05;97704.84;5073825;28;20032;-51
2023/03/05 04:06:03;;;;;;;16.60;8.00;;;3.20;85.30;;;6.72;50.74;97709.19;5073425;28;20384;-51
2023/03/05 04:08:31;;;;;;;16.53;7.77;;;3.20;84.90;;;6.69;50.07;97708.47;5065359;28;20048;-46
2023/03/05 04:11:00;;;;;;;16.27;7.47;;;3.10;85.00;;;6.68;50.75;97714.72;5073642;28;20412;-50
2023/03/05 04:13:28;;;;;;;20.57;8.30;;;3.10;84.80;;;6.59;50.40;97706.75;5072668;28;20049;-51
2023/03/05 04:15:56;;;;;;;17.27;7.43;;;3.10;84.80;;;6.59;51.14;97701.47;5073356;28;20055;-51
2023/03/05 04:18:23;;;;;;;17.80;8.83;;;3.00;85.10;;;6.59;50.91;97696.19;5073382;28;20052;-47
2023/03/05 04:20:51;;;;;;;20.77;8.80;;;3.10;85.10;;;6.61;50.75;97700.38;5055986;28;20044;-49
2023/03/05 04:23:18;;;;;;;23.23;9.83;;;3.10;85.20;;;6.61;50.28;97696.88;5073656;28;20488;-49
2023/03/05 04:25:46;;;;;;;17.03;8.03;;;3.10;84.60;;;6.62;50.05;97696.75;5073594;28;20032;-47
2023/03/05 04:28:14;;;;;;;20.57;10.00;;;3.10;84.80;;;6.64;50.29;97700.09;5073091;28;20060;-52
2023/03/05 04:30:41;;;;;;;19.93;8.47;;;3.10;84.50;;;6.66;50.05;97697.31;5054809;28;20101;-47
2023/03/05 04:33:09;;;;;;;17.93;7.63;;;3.10;84.50;;;6.70;50.71;97696.06;5055378;28;20055;-45
2023/03/05 04:35:36;;;;;;;17.93;8.40;;;3.10;84.10;;;6.68;50.65;97696.22;5073045;28;20047;-46
2023/03/05 04:38:04;;;;;;;16.07;7.30;;;3.10;84.40;;;6.71;50.31;97692.47;5073087;28;20048;-44
2023/03/05 04:40:32;;;;;;;20.83;8.33;;;3.10;84.10;;;6.70;50.45;97688.97;5055104;28;20040;-47
2023/03/05 04:42:59;;;;;;;17.37;7.70;;;3.20;83.80;;;6.72;49.83;97685.38;5072917;28;20146;-51
2023/03/05 04:45:27;;;;;;;18.57;10.50;;;3.10;83.80;;;6.73;50.50;97687.88;5072242;28;20793;-48
2023/03/05 04:47:55;;;;;;;17.00;9.40;;;3.20;83.90;;;6.77;49.73;97688.44;5072979;28;20051;-50
2023/03/05 04:50:23;;;;;;;17.80;7.90;;;3.20;83.80;;;6.73;50.38;97687.88;5055176;28;20155;-50
2023/03/05 04:52:50;;;;;;;22.87;8.83;;;3.20;83.50;;;6.66;50.25;97690.22;5055393;28;20048;-49
2023/03/05 04:55:18;;;;;;;18.83;9.73;;;3.10;83.50;;;6.63;50.24;97682.56;5055108;28;20427;-49
2023/03/05 04:57:45;;;;;;;15.73;9.03;;;3.10;83.80;;;6.67;50.31;97681.31;5072904;28;20051;-51
2023/03/05 05:00:16;;;;;;;16.30;8.87;;;3.10;83.80;;;6.68;49.91;97682.16;5072701;28;20067;-48
2023/03/05 05:02:48;;;;;;;19.47;7.77;;;3.20;83.60;;;6.66;50.38;97682.28;5073031;28;20037;-52
2023/03/05 05:05:20;;;;;;;19.57;8.10;;;3.10;83.50;;;6.63;50.67;97681.72;5072449;28;20041;-50
2023/03/05 05:07:48;;;;;;;19.77;9.33;;;3.10;83.60;;;6.64;50.70;97684.22;5055148;28;20526;-48
2023/03/05 05:10:16;;;;;;;19.77;8.53;;;3.10;83.90;;;6.59;50.01;97681.16;5071088;28;20041;-47
2023/03/05 05:12:43;;;;;;;20.63;8.70;;;3.10;83.60;;;6.62;50.45;97680.06;5071891;28;20408;-47
2023/03/05 05:15:11;;;;;;;17.90;9.63;;;3.10;83.60;;;6.67;49.80;97677.84;5072333;28;20048;-52
2023/03/05 05:17:39;;;;;;;20.60;8.53;;;3.10;83.60;;;6.64;49.91;97678.94;5054297;28;20052;-50
2023/03/05 05:20:10;;;;;;;16.20;8.27;;;3.10;83.30;;;6.70;49.83;97682.84;5072505;28;20045;-49
2023/03/05 05:22:37;;;;;;;19.37;9.50;;;3.20;83.30;;;6.72;50.64;97672.13;5047382;28;20041;-48
2023/03/05 05:25:05;;;;;;;22.03;8.23;;;3.20;83.20;;;6.76;49.48;97678.81;5072173;28;20503;-47
2023/03/05 05:27:33;;;;;;;22.40;8.90;;;3.20;82.80;;;6.74;49.36;97676.31;5072290;28;20044;-48
2023/03/05 05:30:02;;;;;;;25.37;9.17;;;3.20;82.40;;;6.74;49.33;97672.84;5072338;28;20044;-51
2023/03/05 05:32:30;;;;;;;16.73;8.87;;;3.20;82.60;;;6.70;49.81;97677.56;5071997;28;20048;-50
2023/03/05 05:34:58;;;;;;;23.47;11.00;;;3.20;82.80;;;6.71;49.67;97676.59;5071979;28;20037;-52
2023/03/05 05:37:26;;;;;;;19.77;9.10;;;3.20;82.60;;;6.66;49.92;97673.50;5071642;28;20051;-49
2023/03/05 05:39:53;;;;;;;20.93;9.47;;;3.10;82.90;;;6.65;50.25;97677.13;5071671;28;20056;-50
2023/03/05 05:42:23;;;;;;;17.47;8.83;;;3.10;83.30;;;6.68;50.24;97677.69;5071727;28;20523;-43
2023/03/05 05:44:52;;;;;;;23.50;9.77;;;3.10;83.30;;;6.65;49.80;97675.34;5054162;28;20411;-44
2023/03/05 05:47:20;;;;;;;21.50;9.13;;;3.10;82.90;;;6.66;50.42;97670.88;5071407;28;20044;-43
2023/03/05 05:49:48;;;;;;;22.50;9.83;;;3.10;83.10;;;6.69;49.83;97667.97;5071712;28;20051;-43
2023/03/05 05:52:15;;;;;;;21.17;9.40;;;3.10;82.60;;;6.62;50.47;97666.81;5071799;28;20443;-43
2023/03/05 05:54:43;;;;;;;22.13;9.07;;;3.00;83.00;;;6.66;50.46;97670.88;5071710;28;20036;-44
2023/03/05 05:57:10;;;;;;;20.33;8.73;;;3.10;83.10;;;6.68;49.82;97672.41;5070654;28;20056;-43
2023/03/05 05:59:38;;;;;;;18.00;9.40;;;3.10;82.60;;;6.67;50.26;97665.44;5063886;28;20392;-43
2023/03/05 06:02:07;;;;;;;22.47;9.77;;;3.10;82.80;;;6.66;49.61;97674.34;5071506;28;20048;-45
2023/03/05 06:04:36;;;;;;;19.63;10.17;;;3.10;82.80;;;6.66;50.28;97678.81;5071506;28;20041;-44
2023/03/05 06:07:04;;;;;;;23.73;9.90;;;3.10;82.90;;;6.66;49.71;97671.69;5071183;28;20048;-45
2023/03/05 06:09:35;;;;;;;17.97;8.53;;;3.10;82.80;;;6.72;49.82;97669.50;5071458;28;20048;-42
2023/03/05 06:12:03;;;;;;;23.87;10.73;;;3.20;82.50;;;6.71;50.20;97676.59;5070776;28;20049;-43
2023/03/05 06:14:31;;;;;;;22.43;9.93;;;3.20;82.20;;;6.67;49.69;97669.91;5071668;28;20052;-43
2023/03/05 06:16:58;;;;;;;25.27;12.53;;;3.10;82.60;;;6.64;49.77;97665.72;5071151;28;20048;-42
2023/03/05 06:19:26;;;;;;;19.90;10.03;;;3.10;82.90;;;6.67;50.26;97672.56;5061876;28;20049;-43
2023/03/05 06:21:53;;;;;;;16.10;9.70;;;3.10;83.00;;;6.71;49.71;97668.66;5071346;28;20389;-44
2023/03/05 06:24:21;;;;;;;22.20;9.33;;;3.20;82.80;;;6.70;49.88;97673.09;5071353;28;20052;-43
2023/03/05 06:26:48;;;;;;;20.30;8.90;;;3.20;82.60;;;6.72;50.04;97664.19;5071165;28;20036;-42
2023/03/05 06:29:16;;;;;;;23.63;9.40;;;3.20;82.60;;;6.74;49.92;97673.66;5071081;28;20504;-42
2023/03/05 06:31:44;;;;;;;20.83;9.47;;;3.20;82.60;;;6.75;50.10;97669.22;5071091;28;20519;-43
2023/03/05 06:34:11;;;;;;;23.20;9.97;;;3.20;82.50;;;6.76;49.73;97665.59;5071286;28;20052;-44
2023/03/05 06:36:39;;;;;;;24.47;9.50;;;3.20;82.40;;;6.75;49.70;97662.13;5062521;28;20044;-45
2023/03/05 06:39:07;;;;;;;23.20;10.97;;;3.20;82.50;;;6.79;49.92;97668.81;5053340;28;20416;-43
2023/03/05 06:41:34;;;;;;;23.07;10.97;;;3.20;82.20;;;6.71;50.18;97655.44;5070808;28;20052;-43
2023/03/05 06:44:02;;;;;;;20.00;8.97;;;3.10;82.20;;;6.72;49.69;97659.75;5053344;28;20048;-46
2023/03/05 06:46:36;;;;;;;24.40;9.53;;;3.10;82.70;;;6.76;49.87;97658.50;5070774;28;20112;-44
2023/03/05 06:49:04;;;;;;;21.25;9.68;;;3.20;82.80;;;6.79;50.02;97662.69;5070590;28;20056;-42
2023/03/05 06:51:35;;;;;;;21.23;8.90;;;3.20;82.40;;;6.83;50.24;97656.16;5070718;28;20528;-45
2023/03/05 06:54:13;;;;;;;19.90;9.40;;;3.30;82.20;;;6.88;49.90;97656.56;5053607;28;20048;-44
2023/03/05 06:56:44;;;;;;;20.73;8.93;;;3.30;82.00;;;6.89;49.43;97664.34;5053670;28;20499;-43
2023/03/05 06:59:15;;;;;;;21.33;10.53;;;3.30;81.40;;;6.87;49.83;97652.25;5070828;28;20047;-43
2023/03/05 07:01:43;;;;;;;20.03;9.03;;;3.30;82.10;;;6.84;50.19;97653.38;5062809;28;20040;-43
2023/03/05 07:04:12;;;;;;;21.17;9.63;;;3.30;82.40;;;6.84;50.32;97655.16;5070798;28;20041;-42
2023/03/05 07:06:41;;;;;;;19.17;9.57;;;3.30;82.40;;;6.81;50.10;97653.63;5052663;28;20040;-43
2023/03/05 07:09:15;;;;;;;17.53;10.17;;;3.30;82.10;;;6.84;50.11;97647.22;5076013;28;20048;-44
2023/03/05 07:11:42;;;;;;;18.42;8.57;;;3.30;83.20;;;6.90;49.67;97657.25;5069591;28;20051;-42
2023/03/05 07:14:10;;;;;;;22.83;11.07;;;3.30;82.00;;;6.89;50.15;97648.47;5076722;28;20060;-45
2023/03/05 07:16:37;;;;;;;19.90;9.60;;;3.30;81.70;;;6.87;49.53;97646.94;5077359;28;20142;-42
2023/03/05 07:19:06;;;;;;;21.77;10.57;;;3.30;81.90;;;6.87;49.60;97650.44;5077412;28;20052;-43
2023/03/05 07:21:34;;;;;;;23.33;9.37;;;3.30;81.90;;;6.86;49.55;97647.91;5077240;28;20420;-44
2023/03/05 07:24:07;;;;;;;28.77;11.23;;;3.30;82.20;;;6.92;50.41;97643.88;5060553;28;20037;-42
2023/03/05 07:26:34;;;;;;;22.30;10.37;;;3.40;82.20;;;6.99;50.30;97639.72;5076893;28;20048;-42
2023/03/05 07:29:03;;;;;;;20.73;9.67;;;3.50;81.90;;;7.00;50.09;97649.31;5077037;28;20040;-43
2023/03/05 07:31:31;;;;;;;20.93;9.77;;;3.50;81.40;;;6.96;49.80;97654.06;5059453;28;20053;-45
2023/03/05 07:34:01;;;;;;;19.80;9.50;;;3.40;81.10;;;6.97;50.22;97653.09;5077064;28;20036;-42
2023/03/05 07:36:29;;;;;;;16.53;9.10;;;3.50;81.80;;;6.93;50.01;97650.88;5076699;28;20068;-42
2023/03/05 07:38:57;;;;;;;22.50;9.77;;;3.40;81.30;;;6.98;49.75;97648.63;5077054;28;20040;-42
2023/03/05 07:41:24;;;;;;;20.10;9.83;;;3.50;81.70;;;7.00;50.34;97652.81;5042447;28;20040;-43
2023/03/05 07:43:53;;;;;;;18.30;8.80;;;3.50;81.60;;;7.03;50.32;97655.16;5074205;28;20511;-43
2023/03/05 07:46:26;;;;;;;20.83;11.30;;;3.50;81.40;;;7.05;49.86;97645.28;5075194;28;20081;-42
2023/03/05 07:48:54;;;;;;;18.17;8.90;;;3.50;81.10;;;7.03;50.07;97644.59;5076019;28;20517;-42
2023/03/05 07:51:24;;;;;;;21.37;9.43;;;3.50;80.80;;;6.97;50.09;97639.03;5054982;28;20059;-45
2023/03/05 07:53:54;;;;;;;19.10;10.43;;;3.50;81.20;;;6.98;49.55;97641.53;5075285;28;20407;-43
2023/03/05 07:56:25;;;;;;;18.60;8.63;;;3.40;81.30;;;7.03;49.39;97641.09;5058121;28;20048;-46
2023/03/05 07:58:52;;;;;;;19.40;8.03;;;3.50;81.30;;;7.09;49.61;97641.41;5057748;28;20064;-44
2023/03/05 08:01:20;;;;;;;17.97;9.30;;;3.50;81.10;;;7.12;49.81;97644.75;5075123;28;20776;-42
2023/03/05 08:03:47;;;;;;;22.00;9.13;;;3.60;81.30;;;7.15;49.91;97641.81;5076155;28;20507;-43
2023/03/05 08:06:15;;;;;;;23.60;11.00;;;3.60;81.00;;;7.20;49.95;97640.41;5075824;28;20048;-42
2023/03/05 08:08:42;;;;;;;20.87;9.90;;;3.70;81.00;;;7.23;49.44;97642.78;5075895;28;20247;-46
2023/03/05 08:11:13;;;;;;;16.97;8.50;;;3.70;80.50;;;7.10;49.47;97643.06;5041470;28;20057;-43
2023/03/05 08:13:43;;;;;;;18.80;9.93;;;3.60;80.50;;;7.14;49.46;97642.78;5058617;28;20427;-42
2023/03/05 08:16:21;;;;;;;20.90;8.93;;;3.60;81.30;;;7.18;49.53;97642.38;5074646;28;20063;-45
2023/03/05 08:18:49;;;;;;;21.80;10.67;;;3.70;81.00;;;7.21;49.52;97642.09;5067804;28;20040;-42
2023/03/05 08:21:21;;;;;;;23.23;11.07;;;3.70;80.20;;;7.16;49.48;97639.03;5072977;28;20045;-43
2023/03/05 08:23:48;;;;;;;24.53;10.53;;;3.60;80.60;;;7.11;49.74;97641.25;5047681;28;20494;-43
2023/03/05 08:26:20;;;;;;;21.67;11.27;;;3.60;80.70;;;7.06;49.64;97639.03;5072538;28;20495;-43
2023/03/05 08:28:49;;;;;;;19.57;9.83;;;3.50;80.30;;;7.12;50.17;97636.81;5064570;28;20044;-42
2023/03/05 08:31:20;;;;;;;21.83;9.33;;;3.60;81.00;;;7.20;50.05;97632.47;5072590;28;20048;-45
2023/03/05 08:33:55;;;;;;;22.60;9.33;;;3.70;80.80;;;7.23;49.32;97631.34;5064467;28;20055;-43
2023/03/05 08:36:22;;;;;;;17.33;8.40;;;3.70;80.30;;;7.21;49.41;97631.50;5054549;28;20041;-42
2023/03/05 08:38:50;;;;;;;20.90;9.57;;;3.70;80.00;;;7.28;49.27;97637.88;5072355;28;20492;-41
2023/03/05 08:41:18;;;;;;;16.37;8.93;;;3.80;79.20;;;7.35;49.12;97632.03;5072402;28;20051;-46
2023/03/05 08:43:46;;;;;;;26.03;10.53;;;3.90;79.00;;;7.28;49.50;97627.28;5072574;28;20048;-47
2023/03/05 08:46:15;;;;;;;20.00;8.83;;;3.90;78.50;;;7.30;48.82;97624.50;5072053;28;20044;-47
2023/03/05 08:48:43;;;;;;;18.90;10.00;;;3.90;78.70;;;7.28;49.00;97624.66;5054559;28;20036;-49
2023/03/05 08:51:14;;;;;;;20.70;9.63;;;3.90;78.40;;;7.32;48.96;97624.38;5072186;28;20055;-47
2023/03/05 08:53:43;;;;;;;15.30;7.90;;;3.90;78.20;;;7.30;48.80;97625.34;5072017;28;20424;-47
2023/03/05 08:56:12;;;;;;;20.60;10.27;;;3.80;77.20;;;7.28;49.24;97621.16;5071659;28;20052;-49
2023/03/05 08:58:40;;;;;;;22.00;10.27;;;3.80;78.40;;;7.37;48.88;97620.34;5072154;28;20044;-47
2023/03/05 09:01:09;;;;;;;21.07;9.97;;;3.90;78.70;;;7.45;49.23;97620.44;5072098;28;20044;-49
2023/03/05 09:03:38;;;;;;;18.17;9.63;;;4.00;78.40;;;7.51;49.15;97615.56;5072154;28;20498;-42
2023/03/05 09:06:09;;;;;;;22.60;10.47;;;4.10;77.80;;;7.61;48.79;97619.03;5054475;28;20044;-42
2023/03/05 09:08:38;;;;;;;21.87;8.73;;;4.20;77.40;;;7.55;48.75;97612.50;5072306;28;20044;-44
2023/03/05 09:11:08;;;;;;;25.60;8.97;;;4.10;76.90;;;7.55;48.61;97616.97;5054690;28;20052;-43
2023/03/05 09:13:36;;;;;;;19.73;10.47;;;4.10;77.50;;;7.55;48.83;97615.13;5072910;28;20052;-43
2023/03/05 09:16:08;;;;;;;22.07;10.97;;;4.10;77.10;;;7.58;48.56;97614.88;5072353;28;20045;-46
2023/03/05 09:18:35;;;;;;;17.60;9.67;;;4.10;77.20;;;7.53;48.65;97608.31;5072466;28;20063;-43
2023/03/05 09:21:05;;;;;;;21.13;10.10;;;4.10;75.40;;;7.56;48.57;97603.56;5072118;28;20045;-44
2023/03/05 09:23:33;;;;;;;19.17;10.43;;;4.10;76.30;;;7.49;48.09;97607.75;5072422;28;20411;-42
2023/03/05 09:26:01;;;;;;;22.80;11.47;;;4.00;75.80;;;7.41;48.38;97607.66;5072100;28;20048;-43
2023/03/05 09:28:28;;;;;;;20.93;10.47;;;4.00;75.90;;;7.48;48.66;97604.28;5072328;28;20040;-42
2023/03/05 09:30:56;;;;;;;19.33;9.70;;;4.00;76.50;;;7.44;48.30;97604.69;5071429;28;20121;-42
2023/03/05 09:33:23;;;;;;;21.60;9.93;;;4.10;75.80;;;7.40;48.30;97600.66;5072437;28;20048;-44
2023/03/05 09:35:51;;;;;;;20.23;10.17;;;4.00;75.70;;;7.41;48.62;97597.06;5064009;28;20048;-42
2023/03/05 09:38:20;;;;;;;19.77;9.80;;;4.00;76.20;;;7.43;48.27;97598.56;5053571;28;20056;-44
2023/03/05 09:41:06;;;;;;;17.37;8.80;;;4.00;76.10;;;7.41;48.67;97597.06;5071517;28;20043;-41
2023/03/05 09:44:21;;;;;;;20.57;9.47;;;4.00;76.10;;;7.35;48.34;97590.50;5054638;28;20052;-42
2023/03/05 09:47:24;;;;;;;23.02;10.23;;;4.00;76.70;;;7.42;48.43;97588.13;5056473;28;20040;-44
2023/03/05 09:50:32;;;;;;;30.70;14.30;;;4.00;76.20;;;7.37;48.17;97588.56;5047965;28;20387;-42
2023/03/05 09:53:27;;;;;;;26.17;11.80;;;4.00;76.40;;;7.34;48.63;97586.16;5048721;28;20048;-44
2023/03/05 09:56:00;;;;;;;16.70;10.33;;;4.00;76.90;;;7.51;48.50;97581.13;5063971;28;20040;-42
2023/03/05 09:59:00;;;;;;;22.27;11.40;;;4.00;76.30;;;7.58;48.26;97584.84;5071512;28;20044;-40
2023/03/05 10:01:38;;;;;;;18.07;10.07;;;4.10;76.10;;;7.46;48.68;97584.19;5055597;28;20307;-40
2023/03/05 10:04:14;;;;;;;18.10;10.57;;;4.10;76.20;;;7.53;48.52;97579.19;5053222;28;20048;-42
2023/03/05 10:07:07;;;;;;;18.53;10.03;;;4.10;75.90;;;7.49;48.02;97582.09;5060863;28;20131;-43
2023/03/05 10:10:00;;;;;;;26.70;11.50;;;4.10;75.60;;;7.55;48.42;97577.22;5054522;28;20037;-39
2023/03/05 10:12:42;;;;;;;19.80;10.93;;;4.10;76.60;;;7.56;48.29;97576.22;5054184;28;20048;-42
2023/03/05 10:15:19;;;;;;;27.10;13.17;;;4.20;76.50;;;7.71;48.34;97573.97;5071236;28;20048;-43
2023/03/05 10:17:49;;;;;;;20.00;9.57;;;4.40;75.60;;;7.72;48.39;97575.63;5071180;28;20044;-43
2023/03/05 10:20:40;;;;;;;22.97;12.10;;;4.40;75.20;;;7.77;48.16;97570.72;5071067;28;20037;-42
2023/03/05 10:23:07;;;;;;;19.70;11.13;;;4.50;75.10;;;7.75;47.95;97572.69;5065201;28;20044;-42
2023/03/05 10:26:24;;;;;;;22.70;11.00;;;4.40;75.10;;;7.75;48.08;97572.69;5069816;28;20056;-44
2023/03/05 10:29:45;;;;;;;23.90;12.10;;;4.50;74.60;;;7.49;48.32;97579.44;5071160;28;20103;-43
2023/03/05 10:32:33;;;;;;;19.70;11.07;;;4.30;74.50;;;7.62;48.06;97573.03;5065636;28;20044;-44
2023/03/05 10:35:25;;;;;;;34.40;11.73;;;4.20;75.50;;;7.70;48.16;97570.47;5064330;28;20044;-41
2023/03/05 10:38:43;;;;;;;23.70;11.60;;;4.30;75.80;;;7.57;47.76;97573.44;5028833;28;20052;-51
2023/03/05 10:41:22;;;;;;;22.63;10.70;;;4.20;74.60;;;7.49;48.08;97562.72;5063917;28;20041;-48